KMML/MML METAR and TAF weather

Enter ICAO airport designator
Station Type Date Time Source
KMML METAR 2019/04/18 09:56 UTC NOAA

KMML 180956Z AUTO 31010KT 10SM -RA OVC034 04/03 A2981 RMK AO2 RAB06 SLP106 P0000 T00390033


Station Type Date Time Source
KMML Decoded METAR 2019/04/18 09:56 UTC NOAA

Marshall, Southwest Minnesota Regional Airport - Marshall/Ryan Field, MN, United States (KMML) 44-27N 095-49W
Apr 18, 2019 - 05:56 AM EDT / 2019.04.18 0956 UTC
Wind: from the NW (310 degrees) at 12 MPH (10 KT):0
Visibility: 10 mile(s):0
Sky conditions: overcast
Weather: light rain
Precipitation last hour: A trace
Temperature: 39.0 F (3.9 C)
Dew Point: 37.9 F (3.3 C)
Relative Humidity: 95%
Pressure (altimeter): 29.81 in. Hg (1009 hPa)
ob: KMML 180956Z AUTO 31010KT 10SM -RA OVC034 04/03 A2981 RMK AO2 RAB06 SLP106 P0000 T00390033
cycle: 10

Station Type Date Time Source
KMML TAF UTC NOAA

Error!

Example: see airport list